createdAt,value
2024-04-13T00:00:42.089Z,101165.45
2024-04-13T00:03:31.786Z,101162.72
2024-04-13T00:05:59.533Z,101158.59
2024-04-13T00:08:27.241Z,101155.56
2024-04-13T00:10:54.860Z,101155.52
2024-04-13T00:13:22.442Z,101152.02
2024-04-13T00:15:59.218Z,101154.33
2024-04-13T00:18:27.173Z,101156.27
2024-04-13T00:20:54.808Z,101157.88
2024-04-13T00:23:25.674Z,101154.91
2024-04-13T00:25:54.478Z,101158.10
2024-04-13T00:28:22.851Z,101159.05
2024-04-13T00:30:50.694Z,101157.66
2024-04-13T00:33:20.081Z,101155.39
2024-04-13T00:35:47.724Z,101153.72
2024-04-13T00:38:15.418Z,101152.70
2024-04-13T00:40:43.288Z,101152.14
2024-04-13T00:43:11.918Z,101150.67
2024-04-13T00:45:46.222Z,101149.13
2024-04-13T00:48:17.860Z,101159.34
2024-04-13T00:50:48.009Z,101159.73
2024-04-13T00:53:17.481Z,101159.36
2024-04-13T00:55:45.643Z,101162.52
2024-04-13T00:58:13.528Z,101162.29
2024-04-13T01:00:42.350Z,101157.80
2024-04-13T01:03:10.220Z,101157.72
2024-04-13T01:05:39.625Z,101159.41
2024-04-13T01:08:07.271Z,101158.89
2024-04-13T01:10:34.882Z,101156.23
2024-04-13T01:13:02.570Z,101153.77
2024-04-13T01:15:30.294Z,101156.32
2024-04-13T01:17:58.027Z,101157.70
2024-04-13T01:20:26.033Z,101158.88
2024-04-13T01:22:54.235Z,101156.59
2024-04-13T01:25:23.020Z,101157.27
2024-04-13T01:27:50.711Z,101156.19
2024-04-13T01:30:19.040Z,101154.52
2024-04-13T01:32:46.837Z,101156.31
2024-04-13T01:35:15.028Z,101156.89
2024-04-13T01:37:43.559Z,101158.09
2024-04-13T01:40:11.847Z,101154.91
2024-04-13T01:42:46.767Z,101154.30
2024-04-13T01:45:15.005Z,101154.08
2024-04-13T01:47:42.863Z,101154.98
2024-04-13T01:50:12.265Z,101157.34
2024-04-13T01:52:40.053Z,101157.90
2024-04-13T01:55:08.367Z,101160.23
2024-04-13T01:57:36.126Z,101163.38
2024-04-13T02:00:04.407Z,101171.75
2024-04-13T02:02:32.497Z,101172.72
2024-04-13T02:05:00.149Z,101168.40
2024-04-13T02:07:30.306Z,101164.73
2024-04-13T02:09:58.136Z,101163.60
2024-04-13T02:12:26.844Z,101169.57
2024-04-13T02:14:55.840Z,101165.55
2024-04-13T02:17:23.639Z,101163.00
2024-04-13T02:19:51.368Z,101157.44
2024-04-13T02:22:19.834Z,101153.27
2024-04-13T02:24:47.859Z,101153.98
2024-04-13T02:27:15.600Z,101157.16
2024-04-13T02:29:44.519Z,101163.08
2024-04-13T02:32:12.344Z,101164.52
2024-04-13T02:34:40.938Z,101159.42
2024-04-13T02:37:08.534Z,101154.82
2024-04-13T02:39:36.208Z,101150.02
2024-04-13T02:42:04.452Z,101146.30
2024-04-13T02:44:32.152Z,101146.58
2024-04-13T02:46:59.872Z,101147.36
2024-04-13T02:49:28.271Z,101144.70
2024-04-13T02:51:55.871Z,101144.48
2024-04-13T02:54:23.675Z,101149.20
2024-04-13T02:56:52.642Z,101152.05
2024-04-13T02:59:21.220Z,101153.35
2024-04-13T03:01:48.958Z,101154.02
2024-04-13T03:04:17.743Z,101162.14
2024-04-13T03:06:45.903Z,101163.27
2024-04-13T03:09:14.038Z,101160.38
2024-04-13T03:11:41.679Z,101162.56
2024-04-13T03:14:09.360Z,101161.33
2024-04-13T03:16:37.105Z,101162.45
2024-04-13T03:19:04.758Z,101157.81
2024-04-13T03:21:36.093Z,101152.52
2024-04-13T03:24:05.109Z,101150.36
2024-04-13T03:26:33.022Z,101147.95
2024-04-13T03:29:01.358Z,101147.34
2024-04-13T03:31:29.039Z,101150.75
2024-04-13T03:33:59.916Z,101147.50
2024-04-13T03:36:28.305Z,101144.93
2024-04-13T03:38:56.884Z,101146.34
2024-04-13T03:41:24.550Z,101145.77
2024-04-13T03:43:52.258Z,101148.75
2024-04-13T03:46:19.969Z,101148.59
2024-04-13T03:48:48.225Z,101152.17
2024-04-13T03:51:16.031Z,101150.72
2024-04-13T03:53:43.744Z,101153.06
2024-04-13T03:56:11.461Z,101150.39
2024-04-13T03:58:39.572Z,101147.80
2024-04-13T04:01:07.328Z,101150.48
2024-04-13T04:03:35.287Z,101152.50
2024-04-13T04:06:03.131Z,101156.53
2024-04-13T04:08:30.726Z,101150.66
2024-04-13T04:10:58.375Z,101153.57
2024-04-13T04:13:26.022Z,101150.66
2024-04-13T04:15:53.836Z,101148.70
2024-04-13T04:18:21.895Z,101146.30
2024-04-13T04:20:49.621Z,101144.17
2024-04-13T04:23:17.191Z,101148.89
2024-04-13T04:25:45.852Z,101151.08
2024-04-13T04:28:13.591Z,101145.45
2024-04-13T04:30:41.403Z,101147.73
2024-04-13T04:33:09.170Z,101139.44
2024-04-13T04:35:38.307Z,101135.75
2024-04-13T04:38:05.909Z,101138.98
2024-04-13T04:40:35.402Z,101139.55
2024-04-13T04:43:03.072Z,101141.43
2024-04-13T04:45:30.757Z,101139.77
2024-04-13T04:47:59.023Z,101139.70
2024-04-13T04:50:27.650Z,101140.36
2024-04-13T04:52:55.358Z,101139.40
2024-04-13T04:55:23.009Z,101140.10
2024-04-13T04:57:50.927Z,101143.14
2024-04-13T05:00:19.073Z,101137.48
2024-04-13T05:02:46.974Z,101141.04
2024-04-13T05:05:16.361Z,101140.23
2024-04-13T05:07:44.029Z,101144.15
2024-04-13T05:10:12.172Z,101145.79
2024-04-13T05:12:39.918Z,101147.98
2024-04-13T05:15:07.926Z,101150.47
2024-04-13T05:17:35.701Z,101149.15
2024-04-13T05:20:04.152Z,101154.23
2024-04-13T05:22:31.878Z,101154.72
2024-04-13T05:24:59.510Z,101152.58
2024-04-13T05:27:27.228Z,101154.81
2024-04-13T05:29:55.457Z,101154.35
2024-04-13T05:32:23.740Z,101157.69
2024-04-13T05:34:51.808Z,101160.24
2024-04-13T05:37:19.499Z,101156.61
2024-04-13T05:39:47.338Z,101161.32
2024-04-13T05:42:15.004Z,101155.73
2024-04-13T05:44:42.655Z,101162.77
2024-04-13T05:47:10.260Z,101162.04
2024-04-13T05:49:37.911Z,101157.27
2024-04-13T05:52:06.004Z,101155.77
2024-04-13T05:54:33.799Z,101160.23
2024-04-13T05:57:01.889Z,101164.30
2024-04-13T05:59:29.636Z,101166.48
2024-04-13T06:01:58.867Z,101163.26
2024-04-13T06:04:26.644Z,101159.34
2024-04-13T06:06:54.417Z,101156.33
2024-04-13T06:09:22.217Z,101156.63
2024-04-13T06:11:50.255Z,101154.39
2024-04-13T06:14:17.836Z,101160.94
2024-04-13T06:16:48.571Z,101165.17
2024-04-13T06:19:16.259Z,101162.19
2024-04-13T06:21:44.209Z,101166.08
2024-04-13T06:24:12.767Z,101166.39
2024-04-13T06:26:40.827Z,101166.20
2024-04-13T06:29:08.509Z,101163.64
2024-04-13T06:31:36.383Z,101163.85
2024-04-13T06:34:04.434Z,101165.90
2024-04-13T06:36:32.209Z,101168.96
2024-04-13T06:38:59.873Z,101168.21
2024-04-13T06:41:27.559Z,101166.73
2024-04-13T06:43:56.520Z,101169.98
2024-04-13T06:46:24.138Z,101164.99
2024-04-13T06:48:51.831Z,101165.59
2024-04-13T06:51:19.542Z,101165.98
2024-04-13T06:53:47.620Z,101167.27
2024-04-13T06:56:15.985Z,101168.00
2024-04-13T06:58:44.680Z,101168.69
2024-04-13T07:01:12.570Z,101173.55
2024-04-13T07:03:41.966Z,101174.96
2024-04-13T07:06:09.887Z,101172.92
2024-04-13T07:08:44.005Z,101168.09
2024-04-13T07:11:12.599Z,101177.15
2024-04-13T07:13:40.231Z,101163.19
2024-04-13T07:16:08.186Z,101163.72
2024-04-13T07:18:36.276Z,101160.61
2024-04-13T07:21:04.088Z,101163.70
2024-04-13T07:23:31.804Z,101160.85
2024-04-13T07:26:00.516Z,101155.12
2024-04-13T07:28:29.267Z,101152.19
2024-04-13T07:30:57.405Z,101152.99
2024-04-13T07:33:25.332Z,101154.14
2024-04-13T07:35:53.195Z,101160.86
2024-04-13T07:38:21.598Z,101153.31
2024-04-13T07:40:49.285Z,101155.32
2024-04-13T07:43:16.969Z,101156.23
2024-04-13T07:45:45.997Z,101152.80
2024-04-13T07:48:13.858Z,101147.27
2024-04-13T07:50:41.537Z,101155.87
2024-04-13T07:53:09.867Z,101144.98
2024-04-13T07:55:37.492Z,101146.97
2024-04-13T07:58:05.188Z,101148.34
2024-04-13T08:00:33.094Z,101152.08
2024-04-13T08:03:02.070Z,101151.57
2024-04-13T08:05:30.874Z,101156.80
2024-04-13T08:07:58.494Z,101152.96
2024-04-13T08:10:26.260Z,101153.52
2024-04-13T08:12:53.871Z,101153.60
2024-04-13T08:15:21.987Z,101150.90
2024-04-13T08:17:49.772Z,101155.92
2024-04-13T08:20:18.355Z,101160.43
2024-04-13T08:22:46.186Z,101167.70
2024-04-13T08:25:13.751Z,101163.48
2024-04-13T08:27:41.434Z,101170.87
2024-04-13T08:30:10.318Z,101167.20
2024-04-13T08:32:39.016Z,101162.94
2024-04-13T08:35:09.739Z,101155.39
2024-04-13T08:37:37.607Z,101163.30
2024-04-13T08:40:05.884Z,101157.95
2024-04-13T08:42:37.176Z,101155.27
2024-04-13T08:45:05.572Z,101146.73
2024-04-13T08:47:34.100Z,101140.55
2024-04-13T08:50:03.710Z,101140.04
2024-04-13T08:52:31.815Z,101135.86
2024-04-13T08:54:59.727Z,101139.45
2024-04-13T08:57:30.485Z,101133.89
2024-04-13T09:00:01.463Z,101133.65
2024-04-13T09:02:36.487Z,101141.81
2024-04-13T09:05:05.846Z,101138.53
2024-04-13T09:07:34.867Z,101142.00
2024-04-13T09:10:05.459Z,101140.69
2024-04-13T09:12:33.146Z,101137.80
2024-04-13T09:15:01.732Z,101138.23
2024-04-13T09:17:32.716Z,101134.43
2024-04-13T09:20:08.694Z,101140.56
2024-04-13T09:22:37.871Z,101139.23
2024-04-13T09:25:05.826Z,101131.70
2024-04-13T09:27:35.642Z,101134.83
2024-04-13T09:30:10.480Z,101134.89
2024-04-13T09:32:38.580Z,101128.98
2024-04-13T09:35:10.866Z,101132.58
2024-04-13T09:37:39.571Z,101125.91
2024-04-13T09:40:08.519Z,101124.30
2024-04-13T09:42:36.667Z,101125.77
2024-04-13T09:45:08.169Z,101129.85
2024-04-13T09:47:36.019Z,101128.48
2024-04-13T09:50:04.343Z,101124.54
2024-04-13T09:52:33.428Z,101112.37
2024-04-13T09:55:01.745Z,101107.58
2024-04-13T09:57:29.690Z,101103.13
2024-04-13T09:59:57.733Z,101095.77
2024-04-13T10:02:26.163Z,101098.86
2024-04-13T10:04:53.986Z,101102.08
2024-04-13T10:07:25.253Z,101101.64
2024-04-13T10:09:59.358Z,101094.30
2024-04-13T10:12:31.328Z,101090.34
2024-04-13T10:14:59.681Z,101090.02
2024-04-13T10:17:28.241Z,101085.89
2024-04-13T10:19:56.415Z,101076.54
2024-04-13T10:22:32.056Z,101078.02
2024-04-13T10:25:07.344Z,101063.38
2024-04-13T10:27:35.883Z,101065.42
2024-04-13T10:30:06.921Z,101066.17
2024-04-13T10:32:34.626Z,101069.69
2024-04-13T10:35:14.922Z,101064.77
2024-04-13T10:37:42.604Z,101056.52
2024-04-13T10:40:10.208Z,101053.66
2024-04-13T10:42:39.572Z,101051.55
2024-04-13T10:45:15.394Z,101049.10
2024-04-13T10:47:43.625Z,101047.91
2024-04-13T10:50:12.905Z,101041.94
2024-04-13T10:52:41.131Z,101035.69
2024-04-13T10:55:13.051Z,101036.10
2024-04-13T10:57:44.303Z,101033.27
2024-04-13T11:00:12.357Z,101049.39
2024-04-13T11:02:40.239Z,101051.23
2024-04-13T11:05:08.545Z,101048.25
2024-04-13T11:07:36.985Z,101047.87
2024-04-13T11:10:05.295Z,101056.89
2024-04-13T11:12:33.005Z,101049.60
2024-04-13T11:15:00.818Z,101036.54
2024-04-13T11:17:28.770Z,101035.89
2024-04-13T11:19:57.045Z,101037.33
2024-04-13T11:22:27.878Z,101031.96
2024-04-13T11:24:56.908Z,101028.34
2024-04-13T11:27:24.916Z,101023.48
2024-04-13T11:29:53.281Z,101027.77
2024-04-13T11:32:21.124Z,101031.73
2024-04-13T11:34:48.816Z,101027.77
2024-04-13T11:37:18.884Z,101024.52
2024-04-13T11:39:47.567Z,101023.09
2024-04-13T11:42:15.769Z,101024.55
2024-04-13T11:44:43.737Z,101013.23
2024-04-13T11:47:11.547Z,101004.67
2024-04-13T11:49:42.000Z,100998.63
2024-04-13T11:52:14.379Z,100988.79
2024-04-13T11:54:42.840Z,100986.05
2024-04-13T11:57:12.078Z,100980.43
2024-04-13T11:59:40.541Z,100979.77
2024-04-13T12:02:08.208Z,100981.58
2024-04-13T12:04:35.926Z,100971.74
2024-04-13T12:07:03.937Z,100971.14
2024-04-13T12:09:31.658Z,100966.08
2024-04-13T12:12:02.701Z,100972.60
2024-04-13T12:14:39.849Z,100968.70
2024-04-13T12:17:17.719Z,100968.95
2024-04-13T12:19:49.192Z,100967.66
2024-04-13T12:22:17.251Z,100969.38
2024-04-13T12:24:44.990Z,100960.65
2024-04-13T12:27:12.706Z,100957.87
2024-04-13T12:29:40.830Z,100958.41
2024-04-13T12:32:08.562Z,100954.56
2024-04-13T12:34:37.230Z,100950.40
2024-04-13T12:37:04.948Z,100954.90
2024-04-13T12:39:32.715Z,100953.95
2024-04-13T12:42:02.656Z,100952.89
2024-04-13T12:44:30.851Z,100954.01
2024-04-13T12:46:58.772Z,100954.73
2024-04-13T12:49:26.539Z,100946.13
2024-04-13T12:51:54.452Z,100936.65
2024-04-13T12:54:22.130Z,100933.68
2024-04-13T12:56:49.826Z,100931.85
2024-04-13T12:59:17.604Z,100928.35
2024-04-13T13:01:45.351Z,100929.20
2024-04-13T13:04:13.261Z,100923.19
2024-04-13T13:06:41.149Z,100912.91
2024-04-13T13:09:08.903Z,100913.13
2024-04-13T13:11:36.564Z,100913.75
2024-04-13T13:14:04.728Z,100911.53
2024-04-13T13:16:32.376Z,100905.56
2024-04-13T13:19:00.048Z,100918.39
2024-04-13T13:21:27.897Z,100908.29
2024-04-13T13:23:55.674Z,100908.40
2024-04-13T13:26:23.458Z,100908.14
2024-04-13T13:28:53.151Z,100906.66
2024-04-13T13:31:21.635Z,100898.76
2024-04-13T13:33:49.325Z,100894.95
2024-04-13T13:36:17.350Z,100898.83
2024-04-13T13:38:44.980Z,100892.25
2024-04-13T13:41:12.559Z,100889.67
2024-04-13T13:43:40.144Z,100888.33
2024-04-13T13:46:07.779Z,100881.70
2024-04-13T13:48:35.752Z,100880.16
2024-04-13T13:51:04.060Z,100878.53
2024-04-13T13:53:31.701Z,100868.30
2024-04-13T13:55:59.412Z,100864.00
2024-04-13T13:58:27.116Z,100856.52
2024-04-13T14:00:55.372Z,100862.23
2024-04-13T14:03:23.442Z,100869.25
2024-04-13T14:05:51.207Z,100861.17
2024-04-13T14:08:18.898Z,100855.77
2024-04-13T14:10:46.573Z,100849.52
2024-04-13T14:13:14.293Z,100840.22
2024-04-13T14:15:42.393Z,100835.94
2024-04-13T14:18:10.149Z,100829.23
2024-04-13T14:20:44.673Z,100818.92
2024-04-13T14:23:12.927Z,100821.13
2024-04-13T14:25:40.724Z,100825.16
2024-04-13T14:28:08.469Z,100825.63
2024-04-13T14:30:36.375Z,100821.89
2024-04-13T14:33:04.492Z,100824.73
2024-04-13T14:35:32.617Z,100822.13
2024-04-13T14:38:01.227Z,100833.02
2024-04-13T14:40:29.049Z,100834.20
2024-04-13T14:42:57.345Z,100828.27
2024-04-13T14:45:25.377Z,100825.63
2024-04-13T14:47:53.083Z,100818.25
2024-04-13T14:50:20.752Z,100818.41
2024-04-13T14:52:48.565Z,100820.11
2024-04-13T14:55:16.807Z,100819.55
2024-04-13T14:57:47.120Z,100817.18
2024-04-13T15:00:15.295Z,100814.07
2024-04-13T15:02:43.644Z,100811.63
2024-04-13T15:05:11.439Z,100806.30
2024-04-13T15:07:39.322Z,100803.28
2024-04-13T15:10:07.592Z,100797.59
2024-04-13T15:12:35.439Z,100802.89
2024-04-13T15:15:03.288Z,100800.77
2024-04-13T15:17:31.613Z,100802.58
2024-04-13T15:19:59.422Z,100801.15
2024-04-13T15:22:27.065Z,100802.63
2024-04-13T15:24:54.912Z,100800.15
2024-04-13T15:27:22.609Z,100797.19
2024-04-13T15:29:50.206Z,100791.76
2024-04-13T15:32:18.400Z,100790.55
2024-04-13T15:34:46.183Z,100785.98
2024-04-13T15:37:17.254Z,100787.01
2024-04-13T15:39:44.926Z,100783.91
2024-04-13T15:42:12.587Z,100784.95
2024-04-13T15:44:40.285Z,100784.13
2024-04-13T15:47:07.943Z,100776.61
2024-04-13T15:49:35.551Z,100778.55
2024-04-13T15:52:03.312Z,100776.39
2024-04-13T15:54:30.973Z,100773.06
2024-04-13T15:56:58.629Z,100772.55
2024-04-13T15:59:26.821Z,100772.29
2024-04-13T16:01:55.920Z,100771.64
2024-04-13T16:04:23.691Z,100769.54
2024-04-13T16:06:54.527Z,100767.52
2024-04-13T16:09:22.278Z,100762.67
2024-04-13T16:11:49.935Z,100756.06
2024-04-13T16:14:20.368Z,100760.75
2024-04-13T16:16:48.514Z,100752.11
2024-04-13T16:19:16.426Z,100754.12
2024-04-13T16:21:44.425Z,100751.52
2024-04-13T16:24:12.059Z,100751.24
2024-04-13T16:26:39.773Z,100757.23
2024-04-13T16:29:07.732Z,100755.80
2024-04-13T16:31:35.358Z,100748.11
2024-04-13T16:34:03.250Z,100742.07
2024-04-13T16:36:31.169Z,100739.11
2024-04-13T16:38:59.203Z,100739.04
2024-04-13T16:41:26.958Z,100739.88
2024-04-13T16:43:54.704Z,100739.84
2024-04-13T16:46:22.538Z,100736.56
2024-04-13T16:48:50.242Z,100738.17
2024-04-13T16:51:18.139Z,100733.80
2024-04-13T16:53:45.826Z,100734.08
2024-04-13T16:56:13.509Z,100731.51
2024-04-13T16:58:41.474Z,100732.00
2024-04-13T17:01:09.342Z,100730.41
2024-04-13T17:03:37.119Z,100730.88
2024-04-13T17:06:05.156Z,100728.47
2024-04-13T17:08:32.856Z,100730.78
2024-04-13T17:11:00.522Z,100727.00
2024-04-13T17:13:29.045Z,100724.14
2024-04-13T17:15:56.793Z,100720.04
2024-04-13T17:18:24.627Z,100717.35
2024-04-13T17:20:53.396Z,100717.92
2024-04-13T17:23:21.377Z,100717.09
2024-04-13T17:25:49.047Z,100716.77
2024-04-13T17:28:16.707Z,100714.21
2024-04-13T17:30:46.987Z,100717.71
2024-04-13T17:33:14.822Z,100715.38
2024-04-13T17:35:42.464Z,100716.59
2024-04-13T17:38:10.133Z,100719.36
2024-04-13T17:40:39.129Z,100715.20
2024-04-13T17:43:07.081Z,100713.54
2024-04-13T17:45:34.896Z,100708.41
2024-04-13T17:48:03.711Z,100706.13
2024-04-13T17:50:31.347Z,100707.38
2024-04-13T17:52:58.914Z,100707.36
2024-04-13T17:55:26.935Z,100707.24
2024-04-13T17:57:54.623Z,100702.58
2024-04-13T18:00:22.254Z,100704.48
2024-04-13T18:02:49.998Z,100706.77
2024-04-13T18:05:17.636Z,100704.23
2024-04-13T18:07:45.305Z,100698.66
2024-04-13T18:10:12.954Z,100693.40
2024-04-13T18:12:40.722Z,100688.73
2024-04-13T18:15:08.486Z,100690.52
2024-04-13T18:17:36.129Z,100690.80
2024-04-13T18:20:03.948Z,100693.65
2024-04-13T18:22:32.737Z,100691.61
2024-04-13T18:25:00.393Z,100684.92
2024-04-13T18:27:28.481Z,100682.80
2024-04-13T18:29:56.539Z,100689.60
2024-04-13T18:32:24.195Z,100687.69
2024-04-13T18:34:51.824Z,100689.61
2024-04-13T18:37:19.468Z,100693.79
2024-04-13T18:39:47.068Z,100691.71
2024-04-13T18:42:16.446Z,100694.49
2024-04-13T18:44:44.296Z,100690.09
2024-04-13T18:47:11.977Z,100695.41
2024-04-13T18:49:45.212Z,100699.60
2024-04-13T18:52:12.852Z,100694.64
2024-04-13T18:54:40.547Z,100693.54
2024-04-13T18:57:08.269Z,100692.27
2024-04-13T18:59:35.843Z,100687.06
2024-04-13T19:02:04.264Z,100682.90
2024-04-13T19:04:31.992Z,100677.14
2024-04-13T19:06:59.647Z,100678.06
2024-04-13T19:09:27.366Z,100681.41
2024-04-13T19:11:55.338Z,100673.63
2024-04-13T19:14:23.065Z,100668.00
2024-04-13T19:16:52.075Z,100667.17
2024-04-13T19:19:19.914Z,100669.09
2024-04-13T19:21:47.837Z,100664.85
2024-04-13T19:24:16.530Z,100658.46
2024-04-13T19:26:44.358Z,100656.08
2024-04-13T19:29:13.266Z,100653.53
2024-04-13T19:31:41.157Z,100655.23
2024-04-13T19:34:09.930Z,100656.26
2024-04-13T19:36:37.890Z,100652.80
2024-04-13T19:39:05.660Z,100653.29
2024-04-13T19:41:33.229Z,100654.17
2024-04-13T19:44:00.901Z,100653.63
2024-04-13T19:46:28.724Z,100652.05
2024-04-13T19:48:56.507Z,100652.27
2024-04-13T19:51:24.296Z,100651.45
2024-04-13T19:53:53.667Z,100651.46
2024-04-13T19:56:21.322Z,100647.23
2024-04-13T19:58:48.930Z,100646.62
2024-04-13T20:01:17.022Z,100647.89
2024-04-13T20:03:44.921Z,100648.74
2024-04-13T20:06:12.683Z,100646.30
2024-04-13T20:08:42.906Z,100640.75
2024-04-13T20:11:10.684Z,100637.73
2024-04-13T20:13:38.418Z,100632.48
2024-04-13T20:16:24.942Z,100632.21
2024-04-13T20:18:52.703Z,100629.33
2024-04-13T20:21:20.565Z,100622.10
2024-04-13T20:23:48.229Z,100618.27
2024-04-13T20:26:16.208Z,100617.64
2024-04-13T20:28:45.148Z,100615.96
2024-04-13T20:31:13.879Z,100609.60
2024-04-13T20:33:46.336Z,100606.36
2024-04-13T20:36:14.185Z,100605.20
2024-04-13T20:38:42.423Z,100604.70
2024-04-13T20:41:10.221Z,100602.46
2024-04-13T20:43:40.793Z,100600.50
2024-04-13T20:46:08.752Z,100595.38
2024-04-13T20:48:36.412Z,100590.65
2024-04-13T20:51:04.351Z,100591.80
2024-04-13T20:53:32.110Z,100588.98
2024-04-13T20:55:59.924Z,100581.30
2024-04-13T20:58:27.894Z,100573.04
2024-04-13T21:00:59.837Z,100567.36
2024-04-13T21:03:27.754Z,100565.14
2024-04-13T21:05:55.467Z,100563.72
2024-04-13T21:08:23.118Z,100565.83
2024-04-13T21:10:50.751Z,100564.17
2024-04-13T21:13:18.362Z,100566.91
2024-04-13T21:15:46.056Z,100561.94
2024-04-13T21:18:13.861Z,100564.92
2024-04-13T21:20:41.471Z,100562.23
2024-04-13T21:23:09.111Z,100559.51
2024-04-13T21:25:38.584Z,100559.27
2024-04-13T21:28:07.808Z,100553.22
2024-04-13T21:30:38.667Z,100550.19
2024-04-13T21:33:06.567Z,100544.14
2024-04-13T21:35:34.335Z,100542.13
2024-04-13T21:38:01.991Z,100535.58
2024-04-13T21:40:29.675Z,100531.05
2024-04-13T21:42:57.906Z,100534.15
2024-04-13T21:45:25.540Z,100528.02
2024-04-13T21:47:53.236Z,100525.85
2024-04-13T21:50:21.095Z,100526.59
2024-04-13T21:52:48.821Z,100522.78
2024-04-13T21:55:16.880Z,100514.61
2024-04-13T21:57:44.708Z,100513.77
2024-04-13T22:00:15.449Z,100510.77
2024-04-13T22:02:43.102Z,100497.44
2024-04-13T22:05:10.780Z,100491.88
2024-04-13T22:07:38.494Z,100489.45
2024-04-13T22:10:06.518Z,100488.35
2024-04-13T22:12:34.208Z,100490.53
2024-04-13T22:15:01.824Z,100488.63
2024-04-13T22:17:29.496Z,100482.59
2024-04-13T22:19:57.092Z,100479.80
2024-04-13T22:22:24.797Z,100479.15
2024-04-13T22:24:52.479Z,100479.23
2024-04-13T22:27:20.218Z,100479.80
2024-04-13T22:29:48.357Z,100476.77
2024-04-13T22:32:16.038Z,100471.27
2024-04-13T22:34:43.678Z,100476.34
2024-04-13T22:37:11.385Z,100473.58
2024-04-13T22:39:39.135Z,100468.13
2024-04-13T22:42:07.390Z,100470.15
2024-04-13T22:44:35.125Z,100462.10
2024-04-13T22:47:02.872Z,100459.39
2024-04-13T22:49:30.974Z,100451.64
2024-04-13T22:51:58.684Z,100454.29
2024-04-13T22:54:26.429Z,100453.27
2024-04-13T22:56:54.238Z,100446.80
2024-04-13T22:59:22.111Z,100445.12
2024-04-13T23:01:50.934Z,100436.80
2024-04-13T23:04:18.755Z,100439.01
2024-04-13T23:06:46.535Z,100440.20
2024-04-13T23:09:14.294Z,100439.14
2024-04-13T23:11:41.985Z,100432.81
2024-04-13T23:14:10.891Z,100430.77
2024-04-13T23:16:38.628Z,100425.54
2024-04-13T23:19:06.525Z,100424.66
2024-04-13T23:21:36.948Z,100423.32
2024-04-13T23:24:04.807Z,100425.30
2024-04-13T23:26:32.918Z,100414.08
2024-04-13T23:29:01.069Z,100415.58
2024-04-13T23:31:29.793Z,100412.92
2024-04-13T23:33:57.554Z,100403.10
2024-04-13T23:36:25.205Z,100405.48
2024-04-13T23:38:52.863Z,100404.05
2024-04-13T23:41:20.708Z,100400.89
2024-04-13T23:43:48.921Z,100392.21
2024-04-13T23:46:16.825Z,100393.75
2024-04-13T23:48:44.659Z,100393.05
2024-04-13T23:51:12.530Z,100389.55
2024-04-13T23:53:40.181Z,100389.56
2024-04-13T23:56:08.682Z,100380.45
2024-04-13T23:58:36.253Z,100376.26
